KMSN/MSN METAR and TAF weather

Enter ICAO airport designator
Station Type Date Time Source
KMSN METAR 2018/12/11 22:53 UTC NOAA

KMSN 112253Z 07005KT 5SM BR BKN250 M04/M07 A3001 RMK AO2 SLP176 T10441067


Station Type Date Time Source
KMSN Decoded METAR 2018/12/11 22:53 UTC NOAA

MADISON DANE COUNTY RGNL, WI, United States (KMSN) 43-08N 89-21W 261M
Dec 11, 2018 - 05:53 PM EST / 2018.12.11 2253 UTC
Wind: from the ENE (070 degrees) at 6 MPH (5 KT):0
Visibility: 5 mile(s):0
Sky conditions: mostly cloudy
Weather: mist
Temperature: 24.1 F (-4.4 C)
Windchill: 17 F (-8 C):1
Dew Point: 19.9 F (-6.7 C)
Relative Humidity: 83%
Pressure (altimeter): 30.01 in. Hg (1016 hPa)
ob: KMSN 112253Z 07005KT 5SM BR BKN250 M04/M07 A3001 RMK AO2 SLP176 T10441067
cycle: 23

Station Type Date Time Source
KMSN TAF 2018/12/11 22:36 UTC NOAA

TAF
AMD KMSN 112132Z 1122/1218 07006KT P6SM OVC250
FM121000 12009KT 5SM -SN OVC015
FM121200 12010KT 2SM -SN BR OVC007
FM121600 16010KT 2SM -FZDZSN BR OVC006
FM121700 18005KT 3SM BR OVC005


Example: see airport list